UTA117 URFF-URMM
Flight info
| Callsign | UTA117 |
|---|---|
| Flight time | N/A |
| Altitude | 21000 |
| Route | TOLBA DCT PALER/K0487F220 B491 ANAKA/K0489F210 B491 ERSAR B967 ABELA DCT MNW |
| Aircraft | AN24/M-SDFGR/S |
Departure
| Time | N/A |
|---|---|
| Airport | URFF |
Arrival
| Time | 2026-04-24 23:03 |
|---|---|
| Airport | Mineralnye Vody Airport (URMM) |
| Time | Latitude | Longitude | Altitude | Speed | Heading |
|---|---|---|---|---|---|
| 2026-04-24 21:01 | 45.03522 | 33.98586 | 621 ft | 0 kts | 275° |
| 2026-04-24 21:17 | 45.03521 | 33.98596 | 621 ft | 2 kts | 274° |
| 2026-04-24 21:18 | 45.03521 | 33.98615 | 622 ft | 0 kts | 274° |
| 2026-04-24 21:18 | 45.03521 | 33.98631 | 623 ft | 2 kts | 257° |
| 2026-04-24 21:18 | 45.03527 | 33.98650 | 623 ft | 2 kts | 234° |
| 2026-04-24 21:18 | 45.03538 | 33.98665 | 624 ft | 2 kts | 213° |
| 2026-04-24 21:19 | 45.03551 | 33.98672 | 624 ft | 1 kts | 190° |
| 2026-04-24 21:19 | 45.03555 | 33.98673 | 624 ft | 0 kts | 187° |
| 2026-04-24 21:25 | 45.03490 | 33.98661 | 623 ft | 11 kts | 187° |
| 2026-04-24 21:25 | 45.03428 | 33.98656 | 623 ft | 5 kts | 178° |
| 2026-04-24 21:26 | 45.03418 | 33.98657 | 623 ft | 0 kts | 174° |
| 2026-04-24 21:26 | 45.03395 | 33.98682 | 624 ft | 13 kts | 117° |
| 2026-04-24 21:26 | 45.03343 | 33.98734 | 625 ft | 11 kts | 170° |
| 2026-04-24 21:26 | 45.03197 | 33.98710 | 622 ft | 20 kts | 189° |
| 2026-04-24 21:27 | 45.03117 | 33.98620 | 618 ft | 20 kts | 282° |
| 2026-04-24 21:27 | 45.03163 | 33.98373 | 614 ft | 27 kts | 283° |
| 2026-04-24 21:27 | 45.03203 | 33.98142 | 611 ft | 32 kts | 283° |
| 2026-04-24 21:27 | 45.03260 | 33.97809 | 611 ft | 27 kts | 282° |
| 2026-04-24 21:28 | 45.03312 | 33.97508 | 607 ft | 39 kts | 284° |
| 2026-04-24 21:28 | 45.03363 | 33.97223 | 603 ft | 21 kts | 285° |
| 2026-04-24 21:28 | 45.03389 | 33.97062 | 600 ft | 13 kts | 282° |
| 2026-04-24 21:28 | 45.03463 | 33.96925 | 598 ft | 11 kts | 351° |
| 2026-04-24 21:29 | 45.03565 | 33.96882 | 600 ft | 21 kts | 350° |
| 2026-04-24 21:29 | 45.03660 | 33.96848 | 601 ft | 8 kts | 349° |
| 2026-04-24 21:29 | 45.03733 | 33.96836 | 599 ft | 19 kts | 8° |
| 2026-04-24 21:29 | 45.03799 | 33.96856 | 598 ft | 0 kts | 13° |
| 2026-04-24 21:31 | 45.03810 | 33.96859 | 598 ft | 18 kts | 12° |
| 2026-04-24 21:31 | 45.04236 | 33.97003 | 593 ft | 100 kts | 12° |
| 2026-04-24 21:31 | 45.05078 | 33.97266 | 666 ft | 139 kts | 12° |
| 2026-04-24 21:32 | 45.06003 | 33.97974 | 892 ft | 170 kts | 42° |
| 2026-04-24 21:32 | 45.06562 | 33.99532 | 1250 ft | 190 kts | 83° |
| 2026-04-24 21:32 | 45.06539 | 34.01470 | 1587 ft | 210 kts | 86° |
| 2026-04-24 21:32 | 45.06783 | 34.03536 | 1908 ft | 215 kts | 72° |
| 2026-04-24 21:33 | 45.07201 | 34.05592 | 2288 ft | 219 kts | 77° |
| 2026-04-24 21:33 | 45.07313 | 34.07031 | 2556 ft | 221 kts | 88° |
| 2026-04-24 21:33 | 45.07304 | 34.09936 | 3091 ft | 223 kts | 89° |
| 2026-04-24 21:33 | 45.07302 | 34.12104 | 3490 ft | 224 kts | 90° |
| 2026-04-24 21:34 | 45.07300 | 34.14314 | 3904 ft | 225 kts | 86° |
| 2026-04-24 21:34 | 45.07435 | 34.16507 | 4317 ft | 225 kts | 83° |
| 2026-04-24 21:34 | 45.07607 | 34.18734 | 4718 ft | 226 kts | 83° |
| 2026-04-24 21:34 | 45.07789 | 34.20938 | 5118 ft | 227 kts | 82° |
| 2026-04-24 21:35 | 45.07984 | 34.23158 | 5521 ft | 228 kts | 82° |
| 2026-04-24 21:35 | 45.08190 | 34.25383 | 5924 ft | 229 kts | 81° |
| 2026-04-24 21:35 | 45.08410 | 34.27629 | 6332 ft | 230 kts | 81° |
| 2026-04-24 21:35 | 45.08639 | 34.29855 | 6734 ft | 230 kts | 81° |
| 2026-04-24 21:36 | 45.08882 | 34.32106 | 7141 ft | 231 kts | 80° |
| 2026-04-24 21:36 | 45.09135 | 34.34346 | 7545 ft | 232 kts | 79° |
| 2026-04-24 21:36 | 45.09403 | 34.36618 | 7953 ft | 232 kts | 79° |
| 2026-04-24 21:36 | 45.09681 | 34.38864 | 8354 ft | 233 kts | 79° |
| 2026-04-24 21:37 | 45.09940 | 34.41140 | 8768 ft | 233 kts | 84° |
| 2026-04-24 21:37 | 45.09957 | 34.43414 | 9199 ft | 233 kts | 90° |
| 2026-04-24 21:37 | 45.09969 | 34.45708 | 9610 ft | 233 kts | 88° |
| 2026-04-24 21:37 | 45.10022 | 34.48003 | 10008 ft | 235 kts | 87° |
| 2026-04-24 21:38 | 45.10088 | 34.50305 | 10408 ft | 236 kts | 86° |
| 2026-04-24 21:38 | 45.10169 | 34.52632 | 10812 ft | 237 kts | 86° |
| 2026-04-24 21:38 | 45.10264 | 34.54988 | 11221 ft | 238 kts | 85° |
| 2026-04-24 21:38 | 45.10372 | 34.57312 | 11625 ft | 238 kts | 85° |
| 2026-04-24 21:39 | 45.10495 | 34.59654 | 12031 ft | 239 kts | 84° |
| 2026-04-24 21:39 | 45.10599 | 34.61992 | 12445 ft | 239 kts | 88° |
| 2026-04-24 21:39 | 45.10591 | 34.64349 | 12862 ft | 239 kts | 89° |
| 2026-04-24 21:39 | 45.10617 | 34.66712 | 13226 ft | 241 kts | 88° |
| 2026-04-24 21:40 | 45.10661 | 34.69117 | 13558 ft | 244 kts | 88° |
| 2026-04-24 21:40 | 45.10715 | 34.71534 | 13898 ft | 246 kts | 88° |
| 2026-04-24 21:40 | 45.10778 | 34.73920 | 14231 ft | 247 kts | 87° |
| 2026-04-24 21:40 | 45.10851 | 34.76379 | 14571 ft | 247 kts | 87° |
| 2026-04-24 21:41 | 45.10931 | 34.78791 | 14901 ft | 247 kts | 86° |
| 2026-04-24 21:41 | 45.11019 | 34.81235 | 15228 ft | 247 kts | 86° |
| 2026-04-24 21:41 | 45.11113 | 34.83659 | 15557 ft | 247 kts | 86° |
| 2026-04-24 21:41 | 45.11205 | 34.86074 | 15937 ft | 247 kts | 87° |
| 2026-04-24 21:42 | 45.11229 | 34.88504 | 16318 ft | 246 kts | 88° |
| 2026-04-24 21:42 | 45.11257 | 34.90926 | 16675 ft | 246 kts | 88° |
| 2026-04-24 21:42 | 45.11290 | 34.93335 | 17029 ft | 245 kts | 87° |
| 2026-04-24 21:42 | 45.11323 | 34.95758 | 17375 ft | 245 kts | 87° |
| 2026-04-24 21:43 | 45.11357 | 34.98146 | 17709 ft | 244 kts | 87° |
| 2026-04-24 21:43 | 45.11392 | 35.00555 | 18038 ft | 244 kts | 87° |
| 2026-04-24 21:43 | 45.11426 | 35.02950 | 18359 ft | 245 kts | 87° |
| 2026-04-24 21:43 | 45.11460 | 35.05365 | 18678 ft | 245 kts | 87° |
| 2026-04-24 21:44 | 45.11494 | 35.07753 | 18987 ft | 246 kts | 87° |
| 2026-04-24 21:44 | 45.11528 | 35.10168 | 19294 ft | 246 kts | 87° |
| 2026-04-24 21:44 | 45.11560 | 35.12611 | 19602 ft | 247 kts | 87° |
| 2026-04-24 21:44 | 45.11590 | 35.15024 | 19900 ft | 247 kts | 87° |
| 2026-04-24 21:45 | 45.11619 | 35.17479 | 20178 ft | 249 kts | 87° |
| 2026-04-24 21:45 | 45.11645 | 35.19918 | 20390 ft | 253 kts | 87° |
| 2026-04-24 21:45 | 45.11669 | 35.22441 | 20627 ft | 255 kts | 87° |
| 2026-04-24 21:45 | 45.11690 | 35.24968 | 20875 ft | 257 kts | 87° |
| 2026-04-24 21:46 | 45.11706 | 35.27519 | 21132 ft | 259 kts | 88° |
| 2026-04-24 21:46 | 45.11718 | 35.30047 | 21388 ft | 260 kts | 88° |
| 2026-04-24 21:46 | 45.11726 | 35.32629 | 21492 ft | 268 kts | 87° |
| 2026-04-24 21:46 | 45.11900 | 35.35299 | 21575 ft | 273 kts | 77° |
| 2026-04-24 21:47 | 45.12299 | 35.37941 | 21684 ft | 278 kts | 76° |
| 2026-04-24 21:47 | 45.12529 | 35.39746 | 21773 ft | 281 kts | 79° |
| 2026-04-24 21:47 | 45.12719 | 35.43502 | 21997 ft | 285 kts | 88° |
| 2026-04-24 21:47 | 45.12677 | 35.46315 | 22159 ft | 288 kts | 89° |
| 2026-04-24 21:48 | 45.12638 | 35.49132 | 22315 ft | 290 kts | 89° |
| 2026-04-24 21:48 | 45.12618 | 35.52025 | 22484 ft | 291 kts | 87° |
| 2026-04-24 21:48 | 45.12664 | 35.54869 | 22662 ft | 291 kts | 85° |
| 2026-04-24 21:48 | 45.12786 | 35.57717 | 22842 ft | 291 kts | 84° |
| 2026-04-24 21:49 | 45.12923 | 35.60584 | 23002 ft | 292 kts | 84° |
| 2026-04-24 21:49 | 45.13059 | 35.63474 | 23033 ft | 298 kts | 84° |
| 2026-04-24 21:49 | 45.13193 | 35.66465 | 22931 ft | 305 kts | 85° |
| 2026-04-24 21:49 | 45.13322 | 35.69398 | 23459 ft | 284 kts | 85° |
| 2026-04-24 21:50 | 45.13430 | 35.72050 | 24098 ft | 266 kts | 85° |
| 2026-04-24 21:50 | 45.13538 | 35.74675 | 24146 ft | 270 kts | 85° |
| 2026-04-24 21:50 | 45.13649 | 35.77367 | 24202 ft | 273 kts | 85° |
| 2026-04-24 21:50 | 45.13762 | 35.80077 | 24185 ft | 279 kts | 85° |
| 2026-04-24 21:51 | 45.13879 | 35.82856 | 24177 ft | 284 kts | 85° |
| 2026-04-24 21:51 | 45.13995 | 35.85682 | 24179 ft | 289 kts | 85° |
| 2026-04-24 21:51 | 45.14087 | 35.88557 | 24138 ft | 299 kts | 85° |
| 2026-04-24 21:51 | 45.14196 | 35.91552 | 24081 ft | 310 kts | 85° |
| 2026-04-24 21:52 | 45.14319 | 35.94656 | 24019 ft | 320 kts | 85° |
| 2026-04-24 21:52 | 45.14447 | 35.97811 | 23979 ft | 327 kts | 85° |
| 2026-04-24 21:52 | 45.14572 | 36.01097 | 23966 ft | 332 kts | 86° |
| 2026-04-24 21:52 | 45.14614 | 36.04340 | 23982 ft | 331 kts | 87° |
| 2026-04-24 21:53 | 45.14653 | 36.07616 | 23969 ft | 331 kts | 87° |
| 2026-04-24 21:53 | 45.14699 | 36.10863 | 23965 ft | 331 kts | 87° |
| 2026-04-24 21:53 | 45.14746 | 36.14141 | 23975 ft | 331 kts | 87° |
| 2026-04-24 21:53 | 45.14792 | 36.17426 | 23961 ft | 331 kts | 87° |
| 2026-04-24 21:54 | 45.14836 | 36.20694 | 23976 ft | 331 kts | 87° |
| 2026-04-24 21:54 | 45.14879 | 36.23941 | 23966 ft | 331 kts | 87° |
| 2026-04-24 21:54 | 45.14922 | 36.27228 | 23972 ft | 331 kts | 87° |
| 2026-04-24 21:54 | 45.14966 | 36.30494 | 23970 ft | 331 kts | 87° |
| 2026-04-24 21:55 | 45.15009 | 36.33741 | 23964 ft | 331 kts | 87° |
| 2026-04-24 21:55 | 45.15053 | 36.37015 | 23976 ft | 330 kts | 87° |
| 2026-04-24 21:55 | 45.15097 | 36.40279 | 23963 ft | 331 kts | 87° |
| 2026-04-24 21:55 | 45.15138 | 36.43518 | 23976 ft | 331 kts | 87° |
| 2026-04-24 21:56 | 45.15179 | 36.46776 | 23967 ft | 331 kts | 87° |
| 2026-04-24 21:56 | 45.15221 | 36.50029 | 23973 ft | 331 kts | 87° |
| 2026-04-24 21:56 | 45.15264 | 36.53306 | 23973 ft | 331 kts | 87° |
| 2026-04-24 21:56 | 45.15267 | 36.56574 | 23979 ft | 331 kts | 91° |
| 2026-04-24 21:57 | 45.14981 | 36.59809 | 23988 ft | 332 kts | 100° |
| 2026-04-24 21:57 | 45.14382 | 36.62973 | 23968 ft | 333 kts | 105° |
| 2026-04-24 21:57 | 45.13699 | 36.66081 | 23958 ft | 333 kts | 108° |
| 2026-04-24 21:57 | 45.12927 | 36.69197 | 23935 ft | 334 kts | 108° |
| 2026-04-24 21:58 | 45.12172 | 36.72277 | 24002 ft | 331 kts | 108° |
| 2026-04-24 21:58 | 45.11422 | 36.75370 | 23953 ft | 333 kts | 108° |
| 2026-04-24 21:58 | 45.10725 | 36.78538 | 23950 ft | 333 kts | 104° |
| 2026-04-24 21:58 | 45.10155 | 36.81679 | 23953 ft | 333 kts | 103° |
| 2026-04-24 21:59 | 45.09583 | 36.84867 | 23967 ft | 332 kts | 103° |
| 2026-04-24 21:59 | 45.08999 | 36.88061 | 23965 ft | 333 kts | 103° |
| 2026-04-24 21:59 | 45.08413 | 36.91212 | 23973 ft | 333 kts | 104° |
| 2026-04-24 21:59 | 45.07814 | 36.94397 | 23974 ft | 333 kts | 103° |
| 2026-04-24 22:00 | 45.07215 | 36.97557 | 23966 ft | 333 kts | 104° |
| 2026-04-24 22:00 | 45.06617 | 37.00708 | 23974 ft | 333 kts | 103° |
| 2026-04-24 22:00 | 45.06014 | 37.03909 | 23965 ft | 334 kts | 103° |
| 2026-04-24 22:00 | 45.05421 | 37.07100 | 23966 ft | 335 kts | 103° |
| 2026-04-24 22:01 | 45.04838 | 37.10302 | 23974 ft | 336 kts | 103° |
| 2026-04-24 22:01 | 45.04273 | 37.13489 | 23964 ft | 337 kts | 103° |
| 2026-04-24 22:01 | 45.03713 | 37.16740 | 23977 ft | 338 kts | 103° |
| 2026-04-24 22:01 | 45.03178 | 37.19950 | 23966 ft | 339 kts | 105° |
| 2026-04-24 22:02 | 45.02609 | 37.23198 | 23974 ft | 339 kts | 104° |
| 2026-04-24 22:02 | 45.02047 | 37.26460 | 23972 ft | 340 kts | 104° |
| 2026-04-24 22:02 | 45.01502 | 37.29713 | 23969 ft | 341 kts | 104° |
| 2026-04-24 22:02 | 45.00965 | 37.32976 | 23965 ft | 342 kts | 104° |
| 2026-04-24 22:03 | 45.00430 | 37.36253 | 23979 ft | 342 kts | 104° |
| 2026-04-24 22:03 | 44.99899 | 37.39544 | 23969 ft | 343 kts | 104° |
| 2026-04-24 22:03 | 44.99454 | 37.42869 | 23978 ft | 344 kts | 101° |
| 2026-04-24 22:03 | 44.99052 | 37.46165 | 23950 ft | 345 kts | 102° |
| 2026-04-24 22:04 | 44.98634 | 37.49535 | 23970 ft | 345 kts | 102° |
| 2026-04-24 22:04 | 44.98216 | 37.52885 | 23961 ft | 346 kts | 102° |
| 2026-04-24 22:04 | 44.97802 | 37.56235 | 23977 ft | 346 kts | 102° |
| 2026-04-24 22:04 | 44.97346 | 37.59570 | 23981 ft | 345 kts | 105° |
| 2026-04-24 22:05 | 44.96755 | 37.62865 | 23968 ft | 345 kts | 109° |
| 2026-04-24 22:05 | 44.96048 | 37.66115 | 23951 ft | 346 kts | 110° |
| 2026-04-24 22:05 | 44.95350 | 37.69342 | 23929 ft | 346 kts | 110° |
| 2026-04-24 22:05 | 44.94657 | 37.72622 | 23976 ft | 345 kts | 110° |
| 2026-04-24 22:06 | 44.93996 | 37.75890 | 23977 ft | 345 kts | 108° |
| 2026-04-24 22:06 | 44.93476 | 37.79175 | 23965 ft | 347 kts | 104° |
| 2026-04-24 22:06 | 44.93005 | 37.82536 | 23956 ft | 347 kts | 104° |
| 2026-04-24 22:06 | 44.92535 | 37.85876 | 23968 ft | 347 kts | 104° |
| 2026-04-24 22:07 | 44.92062 | 37.89225 | 23968 ft | 347 kts | 105° |
| 2026-04-24 22:07 | 44.91585 | 37.92565 | 23973 ft | 347 kts | 104° |
| 2026-04-24 22:07 | 44.91104 | 37.95917 | 23965 ft | 347 kts | 105° |
| 2026-04-24 22:07 | 44.90622 | 37.99249 | 23973 ft | 347 kts | 105° |
| 2026-04-24 22:08 | 44.90137 | 38.02581 | 23972 ft | 347 kts | 105° |
| 2026-04-24 22:08 | 44.89646 | 38.05918 | 23957 ft | 348 kts | 105° |
| 2026-04-24 22:08 | 44.89133 | 38.09271 | 23963 ft | 348 kts | 105° |
| 2026-04-24 22:08 | 44.88617 | 38.12599 | 23967 ft | 348 kts | 105° |
| 2026-04-24 22:09 | 44.88097 | 38.15913 | 23973 ft | 348 kts | 106° |
| 2026-04-24 22:09 | 44.87560 | 38.19233 | 23971 ft | 348 kts | 106° |
| 2026-04-24 22:09 | 44.87016 | 38.22575 | 23969 ft | 348 kts | 106° |
| 2026-04-24 22:09 | 44.86494 | 38.25900 | 23969 ft | 348 kts | 105° |
| 2026-04-24 22:10 | 44.85978 | 38.29264 | 23973 ft | 348 kts | 105° |
| 2026-04-24 22:10 | 44.85474 | 38.32584 | 23968 ft | 349 kts | 104° |
| 2026-04-24 22:10 | 44.85006 | 38.35935 | 23977 ft | 349 kts | 104° |
| 2026-04-24 22:10 | 44.84507 | 38.39317 | 23968 ft | 349 kts | 105° |
| 2026-04-24 22:11 | 44.84003 | 38.42646 | 23972 ft | 349 kts | 104° |
| 2026-04-24 22:11 | 44.83546 | 38.46035 | 23964 ft | 350 kts | 103° |
| 2026-04-24 22:11 | 44.83083 | 38.49369 | 23962 ft | 350 kts | 103° |
| 2026-04-24 22:11 | 44.82600 | 38.52731 | 23968 ft | 349 kts | 104° |
| 2026-04-24 22:12 | 44.82108 | 38.56113 | 23967 ft | 349 kts | 104° |
| 2026-04-24 22:12 | 44.81614 | 38.59467 | 23978 ft | 349 kts | 104° |
| 2026-04-24 22:12 | 44.81114 | 38.62809 | 23967 ft | 349 kts | 104° |
| 2026-04-24 22:12 | 44.80565 | 38.66175 | 23962 ft | 349 kts | 107° |
| 2026-04-24 22:13 | 44.79910 | 38.69469 | 23941 ft | 348 kts | 110° |
| 2026-04-24 22:13 | 44.79200 | 38.72729 | 23959 ft | 347 kts | 110° |
| 2026-04-24 22:13 | 44.78493 | 38.75964 | 23970 ft | 346 kts | 110° |
| 2026-04-24 22:13 | 44.77780 | 38.79219 | 23973 ft | 346 kts | 110° |
| 2026-04-24 22:14 | 44.77071 | 38.82436 | 23964 ft | 346 kts | 112° |
| 2026-04-24 22:14 | 44.76274 | 38.85671 | 23980 ft | 345 kts | 113° |
| 2026-04-24 22:14 | 44.75466 | 38.88862 | 23969 ft | 345 kts | 113° |
| 2026-04-24 22:14 | 44.74659 | 38.92044 | 23966 ft | 345 kts | 114° |
| 2026-04-24 22:15 | 44.73857 | 38.95198 | 23974 ft | 345 kts | 114° |
| 2026-04-24 22:15 | 44.73036 | 38.98415 | 23973 ft | 344 kts | 115° |
| 2026-04-24 22:15 | 44.72225 | 39.01591 | 23964 ft | 345 kts | 115° |
| 2026-04-24 22:15 | 44.71409 | 39.04780 | 23976 ft | 344 kts | 116° |
| 2026-04-24 22:16 | 44.70559 | 39.07914 | 23970 ft | 342 kts | 117° |
| 2026-04-24 22:16 | 44.69693 | 39.11026 | 23970 ft | 342 kts | 118° |
| 2026-04-24 22:16 | 44.68842 | 39.14150 | 23975 ft | 342 kts | 117° |
| 2026-04-24 22:16 | 44.68013 | 39.17250 | 23954 ft | 342 kts | 118° |
| 2026-04-24 22:17 | 44.67160 | 39.20380 | 23970 ft | 341 kts | 118° |
| 2026-04-24 22:17 | 44.66304 | 39.23503 | 23969 ft | 340 kts | 117° |
| 2026-04-24 22:17 | 44.65482 | 39.26603 | 23976 ft | 341 kts | 116° |
| 2026-04-24 22:17 | 44.64764 | 39.29813 | 23973 ft | 343 kts | 113° |
| 2026-04-24 22:18 | 44.64094 | 39.33045 | 23946 ft | 344 kts | 113° |
| 2026-04-24 22:18 | 44.63405 | 39.36260 | 23952 ft | 343 kts | 113° |
| 2026-04-24 22:18 | 44.62712 | 39.39466 | 23943 ft | 343 kts | 113° |
| 2026-04-24 22:18 | 44.62020 | 39.42660 | 23950 ft | 342 kts | 113° |
| 2026-04-24 22:19 | 44.61327 | 39.45853 | 23947 ft | 342 kts | 113° |
| 2026-04-24 22:19 | 44.60635 | 39.49044 | 23942 ft | 343 kts | 113° |
| 2026-04-24 22:19 | 44.59964 | 39.52251 | 23953 ft | 342 kts | 113° |
| 2026-04-24 22:19 | 44.59274 | 39.55451 | 23949 ft | 342 kts | 113° |
| 2026-04-24 22:20 | 44.58563 | 39.58699 | 23854 ft | 345 kts | 113° |
| 2026-04-24 22:20 | 44.57849 | 39.61929 | 23691 ft | 350 kts | 113° |
| 2026-04-24 22:20 | 44.57124 | 39.65200 | 23551 ft | 353 kts | 114° |
| 2026-04-24 22:20 | 44.56396 | 39.68486 | 23338 ft | 357 kts | 114° |
| 2026-04-24 22:21 | 44.55657 | 39.71830 | 23140 ft | 361 kts | 114° |
| 2026-04-24 22:21 | 44.54905 | 39.75210 | 22958 ft | 363 kts | 114° |
| 2026-04-24 22:21 | 44.54148 | 39.78593 | 22860 ft | 361 kts | 114° |
| 2026-04-24 22:21 | 44.53405 | 39.81911 | 22868 ft | 358 kts | 114° |
| 2026-04-24 22:22 | 44.52663 | 39.85240 | 22896 ft | 354 kts | 113° |
| 2026-04-24 22:22 | 44.51933 | 39.88522 | 22915 ft | 351 kts | 113° |
| 2026-04-24 22:22 | 44.51201 | 39.91823 | 22926 ft | 349 kts | 114° |
| 2026-04-24 22:22 | 44.50486 | 39.95050 | 22948 ft | 347 kts | 114° |
| 2026-04-24 22:23 | 44.49708 | 39.98254 | 22996 ft | 343 kts | 116° |
| 2026-04-24 22:23 | 44.48916 | 40.01383 | 23017 ft | 341 kts | 116° |
| 2026-04-24 22:23 | 44.48133 | 40.04501 | 23076 ft | 339 kts | 116° |
| 2026-04-24 22:23 | 44.47352 | 40.07634 | 23104 ft | 338 kts | 116° |
| 2026-04-24 22:24 | 44.46585 | 40.10712 | 23101 ft | 338 kts | 116° |
| 2026-04-24 22:24 | 44.45834 | 40.13860 | 23088 ft | 340 kts | 115° |
| 2026-04-24 22:24 | 44.45082 | 40.16994 | 23083 ft | 339 kts | 115° |
| 2026-04-24 22:24 | 44.44315 | 40.20137 | 23085 ft | 339 kts | 115° |
| 2026-04-24 22:25 | 44.43559 | 40.23230 | 23095 ft | 339 kts | 115° |
| 2026-04-24 22:25 | 44.42787 | 40.26403 | 23085 ft | 340 kts | 115° |
| 2026-04-24 22:25 | 44.42034 | 40.29498 | 23091 ft | 340 kts | 115° |
| 2026-04-24 22:25 | 44.41266 | 40.32655 | 23092 ft | 339 kts | 115° |
| 2026-04-24 22:26 | 44.40509 | 40.35759 | 23087 ft | 340 kts | 115° |
| 2026-04-24 22:26 | 44.39745 | 40.38891 | 23082 ft | 340 kts | 115° |
| 2026-04-24 22:26 | 44.38979 | 40.42032 | 23093 ft | 339 kts | 115° |
| 2026-04-24 22:26 | 44.38220 | 40.45145 | 23088 ft | 340 kts | 115° |
| 2026-04-24 22:27 | 44.37458 | 40.48274 | 23084 ft | 340 kts | 115° |
| 2026-04-24 22:27 | 44.36691 | 40.51413 | 23090 ft | 340 kts | 115° |
| 2026-04-24 22:27 | 44.35947 | 40.54548 | 23103 ft | 340 kts | 113° |
| 2026-04-24 22:27 | 44.35318 | 40.57749 | 23107 ft | 343 kts | 110° |
| 2026-04-24 22:28 | 44.34736 | 40.60972 | 23071 ft | 344 kts | 110° |
| 2026-04-24 22:28 | 44.34136 | 40.64199 | 23082 ft | 343 kts | 110° |
| 2026-04-24 22:28 | 44.33526 | 40.67454 | 23044 ft | 344 kts | 111° |
| 2026-04-24 22:28 | 44.32926 | 40.70696 | 23099 ft | 342 kts | 111° |
| 2026-04-24 22:29 | 44.31749 | 40.77130 | 23093 ft | 342 kts | 111° |
| 2026-04-24 22:29 | 44.31144 | 40.80363 | 23095 ft | 340 kts | 113° |
| 2026-04-24 22:29 | 44.30423 | 40.83499 | 23085 ft | 339 kts | 115° |
| 2026-04-24 22:30 | 44.29657 | 40.86628 | 23004 ft | 342 kts | 115° |
| 2026-04-24 22:30 | 44.28892 | 40.89750 | 23048 ft | 340 kts | 116° |
| 2026-04-24 22:30 | 44.28003 | 40.92828 | 23046 ft | 338 kts | 121° |
| 2026-04-24 22:30 | 44.27012 | 40.95793 | 23008 ft | 340 kts | 121° |
| 2026-04-24 22:31 | 44.26008 | 40.98804 | 23014 ft | 341 kts | 121° |
| 2026-04-24 22:31 | 44.25005 | 41.01808 | 23015 ft | 342 kts | 121° |
| 2026-04-24 22:31 | 44.24068 | 41.04890 | 23016 ft | 346 kts | 115° |
| 2026-04-24 22:31 | 44.23325 | 41.08076 | 22998 ft | 350 kts | 112° |
| 2026-04-24 22:32 | 44.22570 | 41.11322 | 22992 ft | 351 kts | 113° |
| 2026-04-24 22:32 | 44.21790 | 41.14580 | 22994 ft | 352 kts | 112° |
| 2026-04-24 22:32 | 44.21025 | 41.17810 | 22985 ft | 353 kts | 112° |
| 2026-04-24 22:32 | 44.20249 | 41.21090 | 22973 ft | 354 kts | 112° |
| 2026-04-24 22:33 | 44.19469 | 41.24359 | 22964 ft | 355 kts | 114° |
| 2026-04-24 22:33 | 44.18597 | 41.27531 | 22962 ft | 353 kts | 118° |
| 2026-04-24 22:33 | 44.17548 | 41.30644 | 22934 ft | 352 kts | 121° |
| 2026-04-24 22:33 | 44.16450 | 41.33664 | 22949 ft | 351 kts | 124° |
| 2026-04-24 22:34 | 44.15205 | 41.36609 | 22965 ft | 348 kts | 128° |
| 2026-04-24 22:34 | 44.13987 | 41.39549 | 22948 ft | 353 kts | 121° |
| 2026-04-24 22:34 | 44.13150 | 41.42791 | 22942 ft | 359 kts | 108° |
| 2026-04-24 22:34 | 44.12779 | 41.46256 | 22936 ft | 363 kts | 97° |
| 2026-04-24 22:35 | 44.12651 | 41.49738 | 22916 ft | 364 kts | 95° |
| 2026-04-24 22:35 | 44.12542 | 41.53283 | 22926 ft | 364 kts | 94° |
| 2026-04-24 22:35 | 44.12437 | 41.56792 | 22936 ft | 364 kts | 95° |
| 2026-04-24 22:35 | 44.12494 | 41.60330 | 22966 ft | 365 kts | 86° |
| 2026-04-24 22:36 | 44.12789 | 41.63859 | 22927 ft | 367 kts | 84° |
| 2026-04-24 22:36 | 44.13121 | 41.67370 | 22886 ft | 368 kts | 83° |
| 2026-04-24 22:36 | 44.13421 | 41.70897 | 22961 ft | 365 kts | 86° |
| 2026-04-24 22:36 | 44.13631 | 41.74442 | 22951 ft | 365 kts | 88° |
| 2026-04-24 22:37 | 44.13825 | 41.78005 | 22904 ft | 366 kts | 87° |
| 2026-04-24 22:37 | 44.14026 | 41.81531 | 22969 ft | 364 kts | 87° |
| 2026-04-24 22:37 | 44.14296 | 41.85022 | 22946 ft | 366 kts | 85° |
| 2026-04-24 22:37 | 44.14602 | 41.88573 | 22906 ft | 366 kts | 85° |
| 2026-04-24 22:38 | 44.14897 | 41.92086 | 22966 ft | 365 kts | 85° |
| 2026-04-24 22:38 | 44.15152 | 41.95594 | 22966 ft | 365 kts | 86° |
| 2026-04-24 22:38 | 44.15381 | 41.99154 | 22935 ft | 366 kts | 86° |
| 2026-04-24 22:38 | 44.15615 | 42.02662 | 22946 ft | 366 kts | 86° |
| 2026-04-24 22:39 | 44.15853 | 42.06187 | 22926 ft | 359 kts | 86° |
| 2026-04-24 22:39 | 44.16087 | 42.09663 | 22582 ft | 358 kts | 86° |
| 2026-04-24 22:39 | 44.16317 | 42.13092 | 22247 ft | 357 kts | 86° |
| 2026-04-24 22:39 | 44.16547 | 42.16508 | 21921 ft | 355 kts | 86° |
| 2026-04-24 22:40 | 44.16778 | 42.19936 | 21602 ft | 353 kts | 86° |
| 2026-04-24 22:40 | 44.17007 | 42.23350 | 21241 ft | 353 kts | 86° |
| 2026-04-24 22:40 | 44.17233 | 42.26738 | 20848 ft | 354 kts | 86° |
| 2026-04-24 22:40 | 44.17459 | 42.30172 | 20467 ft | 354 kts | 86° |
| 2026-04-24 22:41 | 44.17678 | 42.33557 | 20103 ft | 353 kts | 86° |
| 2026-04-24 22:41 | 44.17896 | 42.36972 | 19747 ft | 352 kts | 86° |
| 2026-04-24 22:41 | 44.18113 | 42.40375 | 19397 ft | 350 kts | 86° |
| 2026-04-24 22:41 | 44.18320 | 42.43708 | 18734 ft | 344 kts | 86° |
| 2026-04-24 22:42 | 44.18520 | 42.47004 | 17902 ft | 344 kts | 86° |
| 2026-04-24 22:42 | 44.18720 | 42.50337 | 17072 ft | 342 kts | 86° |
| 2026-04-24 22:42 | 44.18913 | 42.53615 | 16265 ft | 339 kts | 86° |
| 2026-04-24 22:42 | 44.19101 | 42.56873 | 15471 ft | 336 kts | 86° |
| 2026-04-24 22:43 | 44.19284 | 42.60093 | 14689 ft | 331 kts | 85° |
| 2026-04-24 22:43 | 44.19536 | 42.63244 | 13951 ft | 326 kts | 82° |
| 2026-04-24 22:43 | 44.19917 | 42.66307 | 13200 ft | 322 kts | 80° |
| 2026-04-24 22:43 | 44.20318 | 42.69377 | 12345 ft | 320 kts | 81° |
| 2026-04-24 22:44 | 44.20682 | 42.72392 | 11525 ft | 317 kts | 81° |
| 2026-04-24 22:44 | 44.21031 | 42.75431 | 10696 ft | 313 kts | 81° |
| 2026-04-24 22:44 | 44.21377 | 42.78366 | 9899 ft | 310 kts | 81° |
| 2026-04-24 22:44 | 44.21724 | 42.81343 | 9094 ft | 306 kts | 81° |
| 2026-04-24 22:45 | 44.22053 | 42.84231 | 8315 ft | 302 kts | 81° |
| 2026-04-24 22:45 | 44.22377 | 42.87118 | 7537 ft | 298 kts | 81° |
| 2026-04-24 22:45 | 44.22655 | 42.89947 | 6789 ft | 294 kts | 82° |
| 2026-04-24 22:45 | 44.22903 | 42.92744 | 6038 ft | 290 kts | 82° |
| 2026-04-24 22:46 | 44.23157 | 42.95501 | 5296 ft | 286 kts | 82° |
| 2026-04-24 22:46 | 44.23407 | 42.98235 | 4560 ft | 282 kts | 82° |
| 2026-04-24 22:46 | 44.23649 | 43.00901 | 4083 ft | 269 kts | 82° |
| 2026-04-24 22:46 | 44.23863 | 43.03374 | 4038 ft | 241 kts | 84° |
| 2026-04-24 22:47 | 44.23748 | 43.05573 | 4046 ft | 215 kts | 111° |
| 2026-04-24 22:47 | 44.23033 | 43.07237 | 4075 ft | 189 kts | 126° |
| 2026-04-24 22:47 | 44.22329 | 43.08696 | 4023 ft | 168 kts | 122° |
| 2026-04-24 22:47 | 44.21734 | 43.10051 | 3933 ft | 172 kts | 121° |
| 2026-04-24 22:48 | 44.21070 | 43.11603 | 3892 ft | 202 kts | 121° |
| 2026-04-24 22:48 | 44.20308 | 43.13404 | 3902 ft | 225 kts | 120° |
| 2026-04-24 22:48 | 44.19483 | 43.15366 | 3941 ft | 242 kts | 120° |
| 2026-04-24 22:48 | 44.18885 | 43.17607 | 4042 ft | 253 kts | 96° |
| 2026-04-24 22:49 | 44.19117 | 43.20025 | 4044 ft | 255 kts | 67° |
| 2026-04-24 22:49 | 44.20173 | 43.21969 | 3990 ft | 252 kts | 37° |
| 2026-04-24 22:49 | 44.21778 | 43.22901 | 3917 ft | 250 kts | 6° |
| 2026-04-24 22:49 | 44.23466 | 43.22584 | 3838 ft | 248 kts | 336° |
| 2026-04-24 22:50 | 44.24824 | 43.21143 | 3764 ft | 247 kts | 307° |
| 2026-04-24 22:50 | 44.25476 | 43.18955 | 3693 ft | 246 kts | 277° |
| 2026-04-24 22:50 | 44.25638 | 43.16576 | 3715 ft | 242 kts | 281° |
| 2026-04-24 22:50 | 44.26104 | 43.14314 | 3715 ft | 240 kts | 288° |
| 2026-04-24 22:51 | 44.26620 | 43.12108 | 3692 ft | 240 kts | 287° |
| 2026-04-24 22:51 | 44.27123 | 43.09884 | 3708 ft | 238 kts | 287° |
| 2026-04-24 22:51 | 44.27620 | 43.07667 | 3712 ft | 236 kts | 287° |
| 2026-04-24 22:51 | 44.28106 | 43.05499 | 3713 ft | 236 kts | 287° |
| 2026-04-24 22:52 | 44.28601 | 43.03294 | 3719 ft | 235 kts | 287° |
| 2026-04-24 22:52 | 44.29120 | 43.01148 | 3717 ft | 234 kts | 295° |
| 2026-04-24 22:52 | 44.30156 | 42.99416 | 3695 ft | 234 kts | 324° |
| 2026-04-24 22:52 | 44.31605 | 42.98410 | 3738 ft | 232 kts | 338° |
| 2026-04-24 22:53 | 44.33122 | 42.97628 | 3722 ft | 233 kts | 339° |
| 2026-04-24 22:53 | 44.34643 | 42.96830 | 3712 ft | 233 kts | 338° |
| 2026-04-24 22:53 | 44.36160 | 42.96024 | 3715 ft | 233 kts | 339° |
| 2026-04-24 22:53 | 44.37674 | 42.95222 | 3720 ft | 233 kts | 339° |
| 2026-04-24 22:54 | 44.39201 | 42.94416 | 3715 ft | 233 kts | 339° |
| 2026-04-24 22:54 | 44.40716 | 42.93617 | 3717 ft | 233 kts | 339° |
| 2026-04-24 22:54 | 44.42239 | 42.92800 | 3719 ft | 233 kts | 335° |
| 2026-04-24 22:54 | 44.43547 | 42.91491 | 3702 ft | 232 kts | 310° |
| 2026-04-24 22:55 | 44.44198 | 42.89447 | 3688 ft | 232 kts | 277° |
| 2026-04-24 22:55 | 44.43964 | 42.87267 | 3708 ft | 231 kts | 245° |
| 2026-04-24 22:55 | 44.42912 | 42.85587 | 3713 ft | 232 kts | 213° |
| 2026-04-24 22:55 | 44.41445 | 42.84633 | 3761 ft | 231 kts | 202° |
| 2026-04-24 22:56 | 44.39926 | 42.83853 | 3706 ft | 235 kts | 201° |
| 2026-04-24 22:56 | 44.38417 | 42.83096 | 3635 ft | 224 kts | 200° |
| 2026-04-24 22:56 | 44.36973 | 42.82534 | 3479 ft | 208 kts | 187° |
| 2026-04-24 22:56 | 44.35563 | 42.82610 | 3269 ft | 196 kts | 168° |
| 2026-04-24 22:57 | 44.34364 | 42.83378 | 2958 ft | 188 kts | 140° |
| 2026-04-24 22:57 | 44.33538 | 42.84662 | 2561 ft | 168 kts | 128° |
| 2026-04-24 22:57 | 44.32858 | 42.85885 | 2359 ft | 158 kts | 127° |
| 2026-04-24 22:57 | 44.32211 | 42.87098 | 2643 ft | 153 kts | 124° |
| 2026-04-24 22:58 | 44.31766 | 42.88391 | 3055 ft | 130 kts | 118° |
| 2026-04-24 22:58 | 44.31296 | 42.89381 | 3340 ft | 133 kts | 124° |
| 2026-04-24 22:58 | 44.30730 | 42.90521 | 3262 ft | 131 kts | 123° |
| 2026-04-24 22:58 | 44.30249 | 42.91576 | 3220 ft | 125 kts | 119° |
| 2026-04-24 22:59 | 44.29803 | 42.92610 | 3221 ft | 124 kts | 119° |
| 2026-04-24 22:59 | 44.29330 | 42.93684 | 3165 ft | 140 kts | 120° |
| 2026-04-24 22:59 | 44.28236 | 42.96082 | 3150 ft | 143 kts | 120° |
| 2026-04-24 23:00 | 44.27711 | 42.97296 | 3000 ft | 151 kts | 120° |
| 2026-04-24 23:00 | 44.27126 | 42.98594 | 2687 ft | 148 kts | 122° |
| 2026-04-24 23:00 | 44.26590 | 42.99727 | 2301 ft | 131 kts | 121° |
| 2026-04-24 23:00 | 44.26132 | 43.00723 | 2068 ft | 122 kts | 120° |
| 2026-04-24 23:01 | 44.25681 | 43.01732 | 1949 ft | 122 kts | 120° |
| 2026-04-24 23:01 | 44.25216 | 43.02741 | 1767 ft | 123 kts | 122° |
| 2026-04-24 23:01 | 44.24764 | 43.03730 | 1521 ft | 119 kts | 121° |
| 2026-04-24 23:01 | 44.24317 | 43.04693 | 1351 ft | 114 kts | 120° |
| 2026-04-24 23:02 | 44.23903 | 43.05619 | 1195 ft | 112 kts | 121° |
| 2026-04-24 23:02 | 44.23481 | 43.06534 | 1065 ft | 109 kts | 120° |
| 2026-04-24 23:02 | 44.23103 | 43.07385 | 1058 ft | 90 kts | 121° |
| 2026-04-24 23:02 | 44.22836 | 43.07967 | 1057 ft | 51 kts | 122° |
| 2026-04-24 23:03 | 44.22687 | 43.08284 | 1057 ft | 39 kts | 121° |
| 2026-04-24 23:03 | 44.22568 | 43.08556 | 1057 ft | 25 kts | 121° |
| 2026-04-24 23:03 | 44.22450 | 43.08760 | 1057 ft | 24 kts | 139° |
| 2026-04-24 23:03 | 44.22335 | 43.08864 | 1057 ft | 14 kts | 152° |
| 2026-04-24 23:04 | 44.22271 | 43.08913 | 1057 ft | 8 kts | 155° |
| 2026-04-24 23:04 | 44.22185 | 43.08979 | 1057 ft | 19 kts | 152° |
| 2026-04-24 23:04 | 44.22071 | 43.09061 | 1057 ft | 14 kts | 154° |
| 2026-04-24 23:04 | 44.21963 | 43.09130 | 1057 ft | 21 kts | 176° |
| 2026-04-24 23:05 | 44.21870 | 43.09070 | 1057 ft | 25 kts | 210° |
| 2026-04-24 23:05 | 44.21843 | 43.08978 | 1057 ft | 7 kts | 299° |
| 2026-04-24 23:05 | 44.21885 | 43.08881 | 1057 ft | 21 kts | 302° |
| 2026-04-24 23:05 | 44.21929 | 43.08786 | 1057 ft | 5 kts | 302° |
| 2026-04-24 23:06 | 44.21967 | 43.08699 | 1057 ft | 8 kts | 292° |
| 2026-04-24 23:06 | 44.21956 | 43.08657 | 1057 ft | 3 kts | 214° |
| 2026-04-24 23:06 | 44.21939 | 43.08642 | 1057 ft | 0 kts | 212° |